Crane — ZR3519 — position and weather

sailwx.info

Track history (hours):
 
Tides and Currents Weather Stations Pressure Air Temp Water Temp Dewpoint Dewpoint Depression Visibility Wind Speed Wind Dir Waves Ship Positions

Crane

Last reported at 2017-Jan-15 15:33 UTC. Time now 2017-Jan-16 10:51 UTC.
Position S 29°52' E 031°01'.

MMSI: 601085000.

Date/timePositionNaut miles runAvg speedWind from/ knotsBaromVisibWave heightAir tempDewpointWater temp
2017-Jan-15 15:33S 29°52' E 031°01'0 0.5
2017-Jan-15 14:33S 29°53' E 031°01'1 0.1
2017-Jan-15 05:33S 29°53' E 031°00'1 0.5
2017-Jan-15 03:15S 29°52' E 031°01'2 2.6
2017-Jan-15 02:33S 29°53' E 031°03'4 4.0
2017-Jan-15 01:33S 29°53' E 031°07'5 5.4
2017-Jan-15 00:33S 29°52' E 031°01'0 0.0
2017-Jan-14 10:33S 29°52' E 031°01'5 4.6
2017-Jan-14 09:33S 29°52' E 031°06'1 0.9
2017-Jan-14 08:33S 29°53' E 031°06'5 5.1
2017-Jan-14 07:33S 29°52' E 031°01'0 0.0
2017-Jan-13 11:31S 29°52' E 031°01'1 0.3
2017-Jan-13 07:23S 29°53' E 031°00'0 0.0
2017-Jan-13 04:31S 29°53' E 031°00'1 1.0
2017-Jan-13 03:33S 29°52' E 031°01'6 5.4
2017-Jan-13 02:32S 29°53' E 031°07'1 0.8
2017-Jan-13 01:33S 29°53' E 031°06'5 5.3
2017-Jan-13 00:33S 29°53' E 031°00'0 0.1
2017-Jan-12 15:33S 29°52' E 031°01'4 3.9
2017-Jan-12 14:33S 29°52' E 031°05'2 1.9
2017-Jan-12 13:33S 29°53' E 031°07'6 0.5
2017-Jan-12 03:07S 29°53' E 031°00'1 2.5
2017-Jan-12 02:33S 29°52' E 031°01'5 5.2
2017-Jan-12 01:33S 29°53' E 031°07'5 5.4
2017-Jan-12 00:33S 29°52' E 031°01'1 0.1
2017-Jan-11 13:15S 29°53' E 031°00'3 4.1
2017-Jan-11 12:33S 29°52' E 031°03'2 2.4
2017-Jan-11 11:33S 29°53' E 031°06'5 4.8
2017-Jan-11 10:33S 29°53' E 031°00'1 0.1
2017-Jan-11 04:33S 29°53' E 031°00'0 0.0
2017-Jan-11 03:33S 29°53' E 031°00'4 4.1
2017-Jan-11 02:33S 29°52' E 031°05'2 2.2
2017-Jan-11 01:33S 29°53' E 031°07'5 5.4
2017-Jan-11 00:33S 29°53' E 031°00'0 0.0
2017-Jan-10 15:33S 29°53' E 031°00'5 5.4
2017-Jan-10 14:33S 29°53' E 031°06'2 1.6
2017-Jan-10 13:34S 29°54' E 031°08'4 4.4
2017-Jan-10 12:33S 29°53' E 031°03'2 2.4
2017-Jan-10 11:33S 29°53' E 031°00'0 0.0
2017-Jan-10 09:33S 29°53' E 031°00'0 0.0
2017-Jan-09 23:33S 29°53' E 031°00'5 4.8
2017-Jan-09 22:33S 29°53' E 031°06'2 1.9
2017-Jan-09 21:34S 29°54' E 031°07'4 4.4
2017-Jan-09 20:34S 29°53' E 031°03'2 0.3
2017-Jan-09 14:27S 29°53' E 031°00'0 0.1
2017-Jan-09 06:33S 29°53' E 031°01'1 0.0
2017-Jan-08 04:33S 29°52' E 031°01'2 2.3
2017-Jan-08 03:33S 29°52' E 031°04'3 3.4
2017-Jan-08 02:34S 29°53' E 031°07'4 3.7
2017-Jan-08 01:33S 29°53' E 031°03'2 0.2
2017-Jan-07 15:33S 29°53' E 031°00'5 5.3
2017-Jan-07 14:33S 29°52' E 031°06'3 2.7
2017-Jan-07 13:33S 29°52' E 031°03'2 2.1
2017-Jan-07 12:33S 29°52' E 031°01'0 0.0
2017-Jan-06 07:33S 29°52' E 031°01'1 0.1
2017-Jan-05 19:30S 29°53' E 031°00'  
Track history (hours):
 
Tides and Currents Weather Stations Pressure Air Temp Water Temp Dewpoint Dewpoint Depression Visibility Wind Speed Wind Dir Waves Ship Positions

Crane

Last reported at 2017-Jan-15 15:33 UTC. Time now 2017-Jan-16 10:51 UTC.
Position S 29°52' E 031°01'.

MMSI: 601085000.

Date/timePositionNaut miles runAvg speedWind from/ knotsBaromVisibWave heightAir tempDewpointWater temp
2017-Jan-15 15:33S 29°52' E 031°01'0 0.5
2017-Jan-15 14:33S 29°53' E 031°01'1 0.1
2017-Jan-15 05:33S 29°53' E 031°00'1 0.5
2017-Jan-15 03:15S 29°52' E 031°01'2 2.6
2017-Jan-15 02:33S 29°53' E 031°03'4 4.0
2017-Jan-15 01:33S 29°53' E 031°07'5 5.4
2017-Jan-15 00:33S 29°52' E 031°01'0 0.0
2017-Jan-14 10:33S 29°52' E 031°01'5 4.6
2017-Jan-14 09:33S 29°52' E 031°06'1 0.9
2017-Jan-14 08:33S 29°53' E 031°06'5 5.1
2017-Jan-14 07:33S 29°52' E 031°01'0 0.0
2017-Jan-13 11:31S 29°52' E 031°01'1 0.3
2017-Jan-13 07:23S 29°53' E 031°00'0 0.0
2017-Jan-13 04:31S 29°53' E 031°00'1 1.0
2017-Jan-13 03:33S 29°52' E 031°01'6 5.4
2017-Jan-13 02:32S 29°53' E 031°07'1 0.8
2017-Jan-13 01:33S 29°53' E 031°06'5 5.3
2017-Jan-13 00:33S 29°53' E 031°00'0 0.1
2017-Jan-12 15:33S 29°52' E 031°01'4 3.9
2017-Jan-12 14:33S 29°52' E 031°05'2 1.9
2017-Jan-12 13:33S 29°53' E 031°07'6 0.5
2017-Jan-12 03:07S 29°53' E 031°00'1 2.5
2017-Jan-12 02:33S 29°52' E 031°01'5 5.2
2017-Jan-12 01:33S 29°53' E 031°07'5 5.4
2017-Jan-12 00:33S 29°52' E 031°01'1 0.1
2017-Jan-11 13:15S 29°53' E 031°00'3 4.1
2017-Jan-11 12:33S 29°52' E 031°03'2 2.4
2017-Jan-11 11:33S 29°53' E 031°06'5 4.8
2017-Jan-11 10:33S 29°53' E 031°00'1 0.1
2017-Jan-11 04:33S 29°53' E 031°00'0 0.0
2017-Jan-11 03:33S 29°53' E 031°00'4 4.1
2017-Jan-11 02:33S 29°52' E 031°05'2 2.2
2017-Jan-11 01:33S 29°53' E 031°07'5 5.4
2017-Jan-11 00:33S 29°53' E 031°00'0 0.0
2017-Jan-10 15:33S 29°53' E 031°00'5 5.4
2017-Jan-10 14:33S 29°53' E 031°06'2 1.6
2017-Jan-10 13:34S 29°54' E 031°08'4 4.4
2017-Jan-10 12:33S 29°53' E 031°03'2 2.4
2017-Jan-10 11:33S 29°53' E 031°00'0 0.0
2017-Jan-10 09:33S 29°53' E 031°00'0 0.0
2017-Jan-09 23:33S 29°53' E 031°00'5 4.8
2017-Jan-09 22:33S 29°53' E 031°06'2 1.9
2017-Jan-09 21:34S 29°54' E 031°07'4 4.4
2017-Jan-09 20:34S 29°53' E 031°03'2 0.3
2017-Jan-09 14:27S 29°53' E 031°00'0 0.1
2017-Jan-09 06:33S 29°53' E 031°01'1 0.0
2017-Jan-08 04:33S 29°52' E 031°01'2 2.3
2017-Jan-08 03:33S 29°52' E 031°04'3 3.4
2017-Jan-08 02:34S 29°53' E 031°07'4 3.7
2017-Jan-08 01:33S 29°53' E 031°03'2 0.2
2017-Jan-07 15:33S 29°53' E 031°00'5 5.3
2017-Jan-07 14:33S 29°52' E 031°06'3 2.7
2017-Jan-07 13:33S 29°52' E 031°03'2 2.1
2017-Jan-07 12:33S 29°52' E 031°01'0 0.0
2017-Jan-06 07:33S 29°52' E 031°01'1 0.1
2017-Jan-05 19:30S 29°53' E 031°00'  

Dump ship's entire track history